createdAt,value
2022-11-21T00:01:08.109Z,99285.25
2022-11-21T00:03:34.381Z,99275.38
2022-11-21T00:06:00.618Z,99277.16
2022-11-21T00:08:26.866Z,99274.59
2022-11-21T00:10:53.173Z,99258.00
2022-11-21T00:13:19.467Z,99258.94
2022-11-21T00:15:45.708Z,99249.16
2022-11-21T00:18:12.828Z,99240.28
2022-11-21T00:20:39.115Z,99236.56
2022-11-21T00:23:05.578Z,99232.19
2022-11-21T00:25:31.866Z,99220.56
2022-11-21T00:27:58.469Z,99227.09
2022-11-21T00:30:24.715Z,99216.22
2022-11-21T00:32:50.971Z,99213.47
2022-11-21T00:35:17.295Z,99207.75
2022-11-21T00:37:43.587Z,99193.59
2022-11-21T00:40:09.806Z,99184.88
2022-11-21T00:42:40.123Z,99191.91
2022-11-21T00:45:06.444Z,99175.81
2022-11-21T00:47:32.689Z,99182.25
2022-11-21T00:49:58.976Z,99171.72
2022-11-21T00:52:25.241Z,99170.88
2022-11-21T00:54:51.447Z,99159.22
2022-11-21T00:57:17.716Z,99158.91
2022-11-21T00:59:43.954Z,99147.41
2022-11-21T01:02:10.688Z,99145.38
2022-11-21T01:04:36.946Z,99132.06
2022-11-21T01:07:03.291Z,99121.44
2022-11-21T01:09:29.623Z,99119.31
2022-11-21T01:11:55.879Z,99112.22
2022-11-21T01:14:22.163Z,99107.41
2022-11-21T01:16:48.470Z,99104.47
2022-11-21T01:19:14.742Z,99088.88
2022-11-21T01:21:41.029Z,99094.19
2022-11-21T01:24:07.379Z,99084.34
2022-11-21T01:26:34.008Z,99078.47
2022-11-21T01:29:00.284Z,99081.44
2022-11-21T01:31:26.558Z,99070.63
2022-11-21T01:33:52.868Z,99073.97
2022-11-21T01:36:19.176Z,99069.19
2022-11-21T01:38:45.572Z,99068.50
2022-11-21T01:41:11.781Z,99070.56
2022-11-21T01:43:38.290Z,99062.63
2022-11-21T01:46:04.657Z,99054.19
2022-11-21T01:48:30.948Z,99055.63
2022-11-21T01:50:57.173Z,99059.38
2022-11-21T01:53:23.444Z,99054.63
2022-11-21T01:55:49.683Z,99058.56
2022-11-21T01:58:15.926Z,99059.44
2022-11-21T02:00:42.219Z,99053.31
2022-11-21T02:03:08.459Z,99049.41
2022-11-21T02:05:34.739Z,99039.81
2022-11-21T02:08:00.963Z,99046.16
2022-11-21T02:10:27.221Z,99028.88
2022-11-21T02:12:53.651Z,99034.53
2022-11-21T02:15:19.890Z,99034.53
2022-11-21T02:17:46.150Z,99029.69
2022-11-21T02:20:12.369Z,99028.72
2022-11-21T02:22:38.596Z,99029.06
2022-11-21T02:25:04.977Z,99021.56
2022-11-21T02:27:31.216Z,99016.25
2022-11-21T02:29:57.485Z,99012.31
2022-11-21T02:32:23.784Z,99011.41
2022-11-21T02:34:49.997Z,99013.31
2022-11-21T02:37:16.254Z,99009.53
2022-11-21T02:39:42.510Z,99000.84
2022-11-21T02:42:08.749Z,99009.38
2022-11-21T02:44:35.011Z,99004.44
2022-11-21T02:47:01.278Z,99002.94
2022-11-21T02:49:27.514Z,98994.59
2022-11-21T02:51:53.834Z,98996.56
2022-11-21T02:54:20.056Z,98988.78
2022-11-21T02:56:46.303Z,98993.09
2022-11-21T02:59:12.544Z,98988.53
2022-11-21T03:01:42.037Z,98983.09
2022-11-21T03:04:08.268Z,98985.72
2022-11-21T03:06:34.566Z,98985.72
2022-11-21T03:09:00.782Z,98975.91
2022-11-21T03:11:26.997Z,98984.97
2022-11-21T03:13:53.199Z,98982.31
2022-11-21T03:16:19.441Z,98975.91
2022-11-21T03:18:45.680Z,98980.59
2022-11-21T03:21:11.924Z,98982.47
2022-11-21T03:23:38.215Z,98980.06
2022-11-21T03:26:04.430Z,98967.69
2022-11-21T03:28:30.654Z,98972.13
2022-11-21T03:30:56.877Z,98968.63
2022-11-21T03:33:23.084Z,98964.56
2022-11-21T03:35:49.299Z,98958.94
2022-11-21T03:38:15.512Z,98955.31
2022-11-21T03:40:41.758Z,98950.94
2022-11-21T03:43:08.235Z,98952.66
2022-11-21T03:45:34.496Z,98944.78
2022-11-21T03:48:00.726Z,98945.06
2022-11-21T03:50:26.966Z,98942.13
2022-11-21T03:52:53.170Z,98939.13
2022-11-21T03:55:19.592Z,98935.66
2022-11-21T03:57:45.852Z,98934.88
2022-11-21T04:00:12.068Z,98934.31
2022-11-21T04:02:38.295Z,98940.19
2022-11-21T04:05:04.507Z,98938.44
2022-11-21T04:07:30.775Z,98933.84
2022-11-21T04:09:57.029Z,98928.34
2022-11-21T04:12:23.256Z,98926.03
2022-11-21T04:14:49.527Z,98931.50
2022-11-21T04:17:15.746Z,98926.22
2022-11-21T04:19:42.018Z,98921.75
2022-11-21T04:22:08.236Z,98920.81
2022-11-21T04:24:34.532Z,98923.56
2022-11-21T04:27:00.754Z,98923.84
2022-11-21T04:29:29.342Z,98915.63
2022-11-21T04:31:55.566Z,98911.25
2022-11-21T04:34:21.833Z,98914.66
2022-11-21T04:36:48.089Z,98908.81
2022-11-21T04:39:14.371Z,98903.59
2022-11-21T04:41:40.584Z,98912.00
2022-11-21T04:44:06.848Z,98913.91
2022-11-21T04:46:33.081Z,98905.00
2022-11-21T04:48:59.352Z,98900.38
2022-11-21T04:51:25.564Z,98902.19
2022-11-21T04:53:51.847Z,98908.03
2022-11-21T04:56:18.097Z,98900.28
2022-11-21T04:58:44.919Z,98903.66
2022-11-21T05:01:11.267Z,98900.47
2022-11-21T05:03:37.657Z,98899.06
2022-11-21T05:06:03.877Z,98888.28
2022-11-21T05:08:30.100Z,98891.94
2022-11-21T05:11:15.545Z,98891.22
2022-11-21T05:13:41.880Z,98885.72
2022-11-21T05:16:08.146Z,98894.16
2022-11-21T05:18:34.460Z,98895.16
2022-11-21T05:21:00.709Z,98890.44
2022-11-21T05:23:26.996Z,98888.94
2022-11-21T05:25:53.275Z,98892.34
2022-11-21T05:28:19.773Z,98889.69
2022-11-21T05:30:46.008Z,98899.03
2022-11-21T05:33:12.303Z,98902.47
2022-11-21T05:35:43.573Z,98899.34
2022-11-21T05:38:10.186Z,98893.09
2022-11-21T05:40:36.585Z,98900.47
2022-11-21T05:43:27.982Z,98906.34
2022-11-21T05:45:58.321Z,98910.13
2022-11-21T05:48:24.563Z,98907.88
2022-11-21T05:50:50.831Z,98908.59
2022-11-21T05:53:17.190Z,98904.25
2022-11-21T05:55:43.449Z,98905.94
2022-11-21T05:58:10.863Z,98905.84
2022-11-21T06:00:37.208Z,98905.56
2022-11-21T06:03:32.398Z,98914.66
2022-11-21T06:05:58.685Z,98918.75
2022-11-21T06:08:24.922Z,98927.16
2022-11-21T06:10:51.143Z,98930.19
2022-11-21T06:13:23.452Z,98941.47
2022-11-21T06:15:49.670Z,98940.31
2022-11-21T06:18:15.902Z,98953.97
2022-11-21T06:20:42.136Z,98956.22
2022-11-21T06:23:08.385Z,98958.66
2022-11-21T06:25:34.603Z,98970.34
2022-11-21T06:28:01.006Z,98970.91
2022-11-21T06:30:27.248Z,98972.13
2022-11-21T06:32:53.609Z,98972.59
2022-11-21T06:35:20.020Z,98978.09
2022-11-21T06:37:50.740Z,98980.63
2022-11-21T06:40:19.533Z,98993.44
2022-11-21T06:42:45.832Z,98999.59
2022-11-21T06:45:12.121Z,98999.78
2022-11-21T06:47:38.373Z,99001.28
2022-11-21T06:50:04.701Z,99007.72
2022-11-21T06:52:30.912Z,99021.47
2022-11-21T06:54:57.190Z,99017.28
2022-11-21T06:57:23.429Z,99020.50
2022-11-21T06:59:49.665Z,99032.28
2022-11-21T07:02:15.931Z,99029.41
2022-11-21T07:04:42.219Z,99037.56
2022-11-21T07:07:08.464Z,99041.72
2022-11-21T07:09:37.931Z,99052.31
2022-11-21T07:12:23.025Z,99051.47
2022-11-21T07:14:49.342Z,99067.78
2022-11-21T07:17:15.846Z,99079.03
2022-11-21T07:19:42.160Z,99079.16
2022-11-21T07:22:08.549Z,99089.38
2022-11-21T07:24:35.157Z,99086.34
2022-11-21T07:27:01.384Z,99099.69
2022-11-21T07:29:27.967Z,99101.97
2022-11-21T07:31:54.300Z,99113.44
2022-11-21T07:34:20.521Z,99111.81
2022-11-21T07:36:48.600Z,99120.16
2022-11-21T07:39:14.891Z,99120.63
2022-11-21T07:41:41.127Z,99123.69
2022-11-21T07:44:07.388Z,99138.34
2022-11-21T07:46:35.575Z,99141.97
2022-11-21T07:49:03.587Z,99152.72
2022-11-21T07:51:30.186Z,99155.66
2022-11-21T07:53:56.464Z,99148.88
2022-11-21T07:56:26.401Z,99153.91
2022-11-21T07:58:52.764Z,99158.09
2022-11-21T08:01:19.117Z,99165.56
2022-11-21T08:03:45.386Z,99173.59
2022-11-21T08:06:12.158Z,99174.91
2022-11-21T08:08:38.377Z,99175.31
2022-11-21T08:11:04.735Z,99190.66
2022-11-21T08:13:30.954Z,99198.69
2022-11-21T08:15:57.179Z,99198.53
2022-11-21T08:18:23.388Z,99206.41
2022-11-21T08:20:49.634Z,99204.91
2022-11-21T08:23:15.897Z,99206.59
2022-11-21T08:25:45.127Z,99211.31
2022-11-21T08:28:11.359Z,99219.31
2022-11-21T08:30:37.845Z,99222.94
2022-11-21T08:33:04.066Z,99230.75
2022-11-21T08:35:30.284Z,99237.34
2022-11-21T08:37:57.021Z,99238.44
2022-11-21T08:40:23.372Z,99249.44
2022-11-21T08:42:49.623Z,99260.19
2022-11-21T08:45:15.879Z,99257.38
2022-11-21T08:47:42.094Z,99268.38
2022-11-21T08:50:12.096Z,99267.28
2022-11-21T08:52:38.411Z,99274.91
2022-11-21T08:55:04.704Z,99278.75
2022-11-21T08:57:31.675Z,99286.09
2022-11-21T08:59:57.873Z,99299.44
2022-11-21T09:02:24.072Z,99293.81
2022-11-21T09:04:50.577Z,99306.22
2022-11-21T09:07:16.835Z,99302.00
2022-11-21T09:09:43.255Z,99303.13
2022-11-21T09:12:09.492Z,99303.13
2022-11-21T09:14:54.656Z,99301.31
2022-11-21T09:17:39.424Z,99303.44
2022-11-21T09:20:05.804Z,99313.72
2022-11-21T09:22:32.056Z,99318.44
2022-11-21T09:24:58.325Z,99311.25
2022-11-21T09:27:24.629Z,99322.50
2022-11-21T09:29:54.088Z,99313.47
2022-11-21T09:32:20.650Z,99328.19
2022-11-21T09:34:46.869Z,99330.66
2022-11-21T09:37:16.791Z,99325.69
2022-11-21T09:39:42.996Z,99331.50
2022-11-21T09:42:09.268Z,99332.88
2022-11-21T09:44:35.507Z,99341.06
2022-11-21T09:47:01.724Z,99344.34
2022-11-21T09:49:28.186Z,99340.47
2022-11-21T09:51:54.651Z,99344.09
2022-11-21T09:54:20.898Z,99339.88
2022-11-21T09:56:47.401Z,99343.31
2022-11-21T09:59:13.656Z,99333.03
2022-11-21T10:01:39.892Z,99339.88
2022-11-21T10:04:06.170Z,99342.94
2022-11-21T10:06:32.719Z,99351.66
2022-11-21T10:08:59.111Z,99357.31
2022-11-21T10:11:25.493Z,99362.28
2022-11-21T10:13:51.702Z,99357.72
2022-11-21T10:16:17.940Z,99360.91
2022-11-21T10:18:44.137Z,99361.75
2022-11-21T10:21:10.379Z,99367.16
2022-11-21T10:23:36.684Z,99371.00
2022-11-21T10:26:04.836Z,99365.38
2022-11-21T10:28:31.087Z,99369.31
2022-11-21T10:30:57.321Z,99359.28
2022-11-21T10:33:23.602Z,99368.47
2022-11-21T10:35:49.823Z,99371.38
2022-11-21T10:38:16.112Z,99368.19
2022-11-21T10:40:42.323Z,99372.88
2022-11-21T10:43:27.440Z,99379.31
2022-11-21T10:45:53.724Z,99383.16
2022-11-21T10:48:19.937Z,99376.69
2022-11-21T10:50:46.392Z,99379.00
2022-11-21T10:53:31.447Z,99378.88
2022-11-21T10:55:57.720Z,99378.16
2022-11-21T10:58:23.952Z,99383.41
2022-11-21T11:00:50.258Z,99382.88
2022-11-21T11:03:16.567Z,99385.97
2022-11-21T11:05:43.816Z,99377.78
2022-11-21T11:08:10.054Z,99377.16
2022-11-21T11:10:36.330Z,99369.13
2022-11-21T11:13:45.200Z,99368.88
2022-11-21T11:16:07.363Z,99372.78
2022-11-21T11:18:34.338Z,99367.47
2022-11-21T11:21:00.565Z,99377.25
2022-11-21T11:23:26.954Z,99376.00
2022-11-21T11:25:53.371Z,99372.69
2022-11-21T11:28:20.020Z,99371.34
2022-11-21T11:30:47.017Z,99374.69
2022-11-21T11:33:13.328Z,99377.59
2022-11-21T11:35:40.415Z,99370.75
2022-11-21T11:38:06.922Z,99366.69
2022-11-21T11:40:33.325Z,99366.63
2022-11-21T11:43:18.397Z,99363.03
2022-11-21T11:46:03.334Z,99362.34
2022-11-21T11:48:29.612Z,99350.63
2022-11-21T11:50:55.886Z,99362.97
2022-11-21T11:53:22.183Z,99361.16
2022-11-21T11:55:48.633Z,99355.78
2022-11-21T11:58:14.873Z,99357.94
2022-11-21T12:00:44.955Z,99349.28
2022-11-21T12:03:11.146Z,99347.59
2022-11-21T12:05:37.435Z,99355.81
2022-11-21T12:08:40.335Z,99351.50
2022-11-21T12:11:08.904Z,99354.38
2022-11-21T12:13:35.120Z,99357.03
2022-11-21T12:16:07.149Z,99361.25
2022-11-21T12:18:38.155Z,99360.75
2022-11-21T12:21:04.400Z,99370.19
2022-11-21T12:23:32.182Z,99360.66
2022-11-21T12:25:58.505Z,99356.28
2022-11-21T12:28:24.748Z,99361.72
2022-11-21T12:30:51.101Z,99363.81
2022-11-21T12:33:17.337Z,99369.06
2022-11-21T12:35:43.601Z,99368.31
2022-11-21T12:38:09.974Z,99366.03
2022-11-21T12:40:36.253Z,99367.16
2022-11-21T12:43:04.460Z,99368.97
2022-11-21T12:45:31.673Z,99363.94
2022-11-21T12:48:17.063Z,99354.16
2022-11-21T12:51:01.800Z,99364.03
2022-11-21T12:53:46.967Z,99361.78
2022-11-21T12:56:13.235Z,99358.72
2022-11-21T12:58:39.454Z,99361.78
2022-11-21T13:01:05.891Z,99358.63
2022-11-21T13:03:33.359Z,99353.88
2022-11-21T13:05:59.728Z,99349.25
2022-11-21T13:08:26.018Z,99349.53
2022-11-21T13:10:52.403Z,99352.84
2022-11-21T13:13:18.643Z,99344.56
2022-11-21T13:15:44.936Z,99345.53
2022-11-21T13:18:11.193Z,99353.50
2022-11-21T13:20:37.392Z,99346.69
2022-11-21T13:23:06.552Z,99355.56
2022-11-21T13:25:32.894Z,99356.91
2022-11-21T13:27:59.824Z,99344.75
2022-11-21T13:30:26.086Z,99338.69
2022-11-21T13:32:52.549Z,99340.97
2022-11-21T13:35:19.343Z,99329.75
2022-11-21T13:37:47.069Z,99340.03
2022-11-21T13:40:13.472Z,99333.84
2022-11-21T13:43:18.052Z,99319.13
2022-11-21T13:45:45.009Z,99322.00
2022-11-21T13:48:11.379Z,99328.44
2022-11-21T13:50:37.582Z,99319.91
2022-11-21T13:53:03.790Z,99318.94
2022-11-21T13:55:30.231Z,99305.19
2022-11-21T13:57:57.544Z,99315.53
2022-11-21T14:00:23.813Z,99314.22
2022-11-21T14:02:50.066Z,99312.59
2022-11-21T14:05:16.824Z,99306.03
2022-11-21T14:07:43.268Z,99314.97
2022-11-21T14:10:09.588Z,99310.81
2022-11-21T14:12:41.072Z,99307.03
2022-11-21T14:15:10.484Z,99315.28
2022-11-21T14:17:36.919Z,99317.81
2022-11-21T14:20:03.251Z,99312.88
2022-11-21T14:22:34.777Z,99313.53
2022-11-21T14:25:02.436Z,99312.50
2022-11-21T14:27:28.693Z,99311.16
2022-11-21T14:29:55.017Z,99312.03
2022-11-21T14:32:21.222Z,99309.72
2022-11-21T14:34:47.429Z,99309.25
2022-11-21T14:37:14.001Z,99310.19
2022-11-21T14:39:44.099Z,99309.25
2022-11-21T14:42:11.305Z,99301.34
2022-11-21T14:44:37.701Z,99311.81
2022-11-21T14:47:03.963Z,99300.38
2022-11-21T14:49:32.699Z,99304.06
2022-11-21T14:51:59.861Z,99311.19
2022-11-21T14:54:26.822Z,99302.56
2022-11-21T14:56:53.741Z,99312.81
2022-11-21T14:59:22.980Z,99310.69
2022-11-21T15:01:49.341Z,99312.59
2022-11-21T15:04:15.670Z,99307.66
2022-11-21T15:06:41.868Z,99298.66
2022-11-21T15:10:25.137Z,99294.81
2022-11-21T15:11:54.544Z,99297.25
2022-11-21T15:14:20.801Z,99295.16
2022-11-21T15:16:47.230Z,99296.41
2022-11-21T15:19:13.726Z,99290.31
2022-11-21T15:21:39.963Z,99293.66
2022-11-21T15:24:06.238Z,99283.41
2022-11-21T15:26:32.514Z,99287.09
2022-11-21T15:28:58.809Z,99283.75
2022-11-21T15:31:25.013Z,99277.25
2022-11-21T15:34:06.407Z,99286.06
2022-11-21T15:36:37.469Z,99275.28
2022-11-21T15:39:05.378Z,99270.69
2022-11-21T15:41:31.706Z,99289.06
2022-11-21T15:43:57.941Z,99280.47
2022-11-21T15:46:24.265Z,99272.59
2022-11-21T15:48:50.633Z,99279.19
2022-11-21T15:51:20.359Z,99277.28
2022-11-21T15:53:49.905Z,99268.13
2022-11-21T15:56:21.470Z,99275.03
2022-11-21T15:58:49.127Z,99271.06
2022-11-21T16:01:15.490Z,99273.44
2022-11-21T16:03:41.998Z,99266.19
2022-11-21T16:06:09.343Z,99261.22
2022-11-21T16:08:35.641Z,99256.34
2022-11-21T16:11:01.928Z,99253.34
2022-11-21T16:13:28.174Z,99244.03
2022-11-21T16:15:54.389Z,99249.44
2022-11-21T16:18:22.498Z,99244.03
2022-11-21T16:20:48.781Z,99238.97
2022-11-21T16:23:15.040Z,99228.38
2022-11-21T16:25:42.835Z,99226.22
2022-11-21T16:28:09.109Z,99225.72
2022-11-21T16:30:35.421Z,99217.25
2022-11-21T16:33:01.700Z,99224.44
2022-11-21T16:35:27.926Z,99223.06
2022-11-21T16:37:54.181Z,99215.56
2022-11-21T16:40:20.420Z,99221.00
2022-11-21T16:42:47.010Z,99205.44
2022-11-21T16:45:13.322Z,99205.56
2022-11-21T16:47:42.028Z,99202.16
2022-11-21T16:50:12.239Z,99201.50
2022-11-21T16:52:38.466Z,99200.03
2022-11-21T16:55:04.763Z,99198.06
2022-11-21T16:57:31.021Z,99195.28
2022-11-21T16:59:59.147Z,99188.16
2022-11-21T17:02:25.581Z,99184.28
2022-11-21T17:04:52.255Z,99181.53
2022-11-21T17:07:18.493Z,99183.34
2022-11-21T17:09:44.801Z,99182.09
2022-11-21T17:12:11.189Z,99189.19
2022-11-21T17:14:37.441Z,99185.94
2022-11-21T17:17:03.669Z,99174.00
2022-11-21T17:19:30.160Z,99168.31
2022-11-21T17:21:56.880Z,99163.06
2022-11-21T17:24:23.182Z,99171.28
2022-11-21T17:26:49.409Z,99166.56
2022-11-21T17:29:15.630Z,99163.53
2022-11-21T17:31:42.981Z,99171.69
2022-11-21T17:34:09.257Z,99167.03
2022-11-21T17:36:35.508Z,99173.75
2022-11-21T17:39:01.811Z,99167.44
2022-11-21T17:41:28.040Z,99164.84
2022-11-21T17:43:54.315Z,99173.38
2022-11-21T17:46:20.536Z,99169.81
2022-11-21T17:48:52.999Z,99155.09
2022-11-21T17:51:22.171Z,99166.06
2022-11-21T17:53:48.462Z,99166.34
2022-11-21T17:56:14.894Z,99171.84
2022-11-21T17:58:41.092Z,99172.59
2022-11-21T18:01:07.517Z,99175.84
2022-11-21T18:03:33.912Z,99162.28
2022-11-21T18:06:00.541Z,99158.59
2022-11-21T18:08:26.803Z,99159.38
2022-11-21T18:10:54.032Z,99161.59
2022-11-21T18:13:20.244Z,99158.69
2022-11-21T18:15:47.987Z,99154.09
2022-11-21T18:18:14.473Z,99147.16
2022-11-21T18:20:40.715Z,99146.56
2022-11-21T18:23:07.164Z,99140.59
2022-11-21T18:25:33.395Z,99148.69
2022-11-21T18:27:59.639Z,99141.69
2022-11-21T18:30:26.160Z,99142.63
2022-11-21T18:32:52.427Z,99130.84
2022-11-21T18:35:18.713Z,99117.69
2022-11-21T18:37:45.019Z,99125.13
2022-11-21T18:40:11.569Z,99116.84
2022-11-21T18:42:37.810Z,99105.72
2022-11-21T18:45:04.100Z,99113.22
2022-11-21T18:47:30.434Z,99104.09
2022-11-21T18:49:56.735Z,99100.66
2022-11-21T18:52:23.376Z,99077.44
2022-11-21T18:54:49.714Z,99068.44
2022-11-21T18:57:16.018Z,99070.88
2022-11-21T18:59:42.648Z,99065.19
2022-11-21T19:02:10.400Z,99065.66
2022-11-21T19:04:36.671Z,99057.75
2022-11-21T19:07:03.148Z,99048.00
2022-11-21T19:09:32.475Z,99036.22
2022-11-21T19:11:59.144Z,99043.16
2022-11-21T19:14:25.373Z,99032.44
2022-11-21T19:16:51.640Z,99037.88
2022-11-21T19:19:46.604Z,99040.16
2022-11-21T19:22:06.778Z,99031.81
2022-11-21T19:24:33.478Z,99023.59
2022-11-21T19:27:01.780Z,99016.44
2022-11-21T19:29:29.585Z,99015.31
2022-11-21T19:31:56.175Z,99006.78
2022-11-21T19:34:24.474Z,99001.78
2022-11-21T19:36:50.827Z,99004.66
2022-11-21T19:39:18.004Z,99008.63
2022-11-21T19:41:44.484Z,99010.97
2022-11-21T19:44:11.593Z,99004.09
2022-11-21T19:46:38.301Z,98998.69
2022-11-21T19:49:04.645Z,99003.81
2022-11-21T19:51:34.628Z,98992.72
2022-11-21T19:54:00.853Z,98998.53
2022-11-21T19:56:27.146Z,98996.34
2022-11-21T19:58:53.486Z,98994.53
2022-11-21T20:01:22.654Z,98998.22
2022-11-21T20:03:49.965Z,98994.94
2022-11-21T20:06:16.326Z,98993.25
2022-11-21T20:08:42.825Z,98999.31
2022-11-21T20:11:12.291Z,98997.94
2022-11-21T20:13:38.669Z,98999.72
2022-11-21T20:16:04.959Z,98998.28
2022-11-21T20:21:21.388Z,99008.09
2022-11-21T20:23:47.831Z,99006.72
2022-11-21T20:26:15.098Z,99006.28
2022-11-21T20:28:41.422Z,99010.22
2022-11-21T20:31:10.290Z,99011.72
2022-11-21T20:33:40.909Z,99018.47
2022-11-21T20:36:07.234Z,99017.50
2022-11-21T20:38:34.604Z,99006.91
2022-11-21T20:41:00.958Z,99017.13
2022-11-21T20:43:52.675Z,99020.53
2022-11-21T20:46:19.966Z,99018.41
2022-11-21T20:48:46.847Z,99026.41
2022-11-21T20:54:03.396Z,99015.44
2022-11-21T20:56:30.313Z,99011.69
2022-11-21T20:58:56.618Z,99005.19
2022-11-21T21:01:25.899Z,99007.13
2022-11-21T21:03:52.237Z,99012.34
2022-11-21T21:06:20.851Z,99000.91
2022-11-21T21:08:47.372Z,99001.13
2022-11-21T21:11:36.665Z,98998.03
2022-11-21T21:14:00.094Z,99010.22
2022-11-21T21:16:26.568Z,99007.88
2022-11-21T21:18:53.568Z,99010.69
2022-11-21T21:21:19.832Z,99011.00
2022-11-21T21:23:46.098Z,99006.41
2022-11-21T21:26:12.417Z,99001.34
2022-11-21T21:28:38.850Z,99003.63
2022-11-21T21:31:05.112Z,99012.56
2022-11-21T21:33:31.354Z,99008.78
2022-11-21T21:35:57.660Z,99000.91
2022-11-21T21:38:23.895Z,99006.91
2022-11-21T21:40:50.375Z,98998.78
2022-11-21T21:43:16.646Z,99000.59
2022-11-21T21:45:42.924Z,99005.88
2022-11-21T21:48:09.286Z,99001.44
2022-11-21T21:50:35.602Z,99001.44
2022-11-21T21:53:01.963Z,99006.88
2022-11-21T21:55:28.304Z,99009.13
2022-11-21T21:57:54.719Z,99015.50
2022-11-21T22:00:21.102Z,99027.72
2022-11-21T22:02:47.519Z,99023.72
2022-11-21T22:05:13.790Z,99016.03
2022-11-21T22:07:40.222Z,99013.13
2022-11-21T22:10:06.574Z,99011.25
2022-11-21T22:12:34.231Z,99005.50
2022-11-21T22:15:00.562Z,99003.66
2022-11-21T22:17:26.837Z,99000.41
2022-11-21T22:19:53.290Z,98996.47
2022-11-21T22:22:19.572Z,99001.09
2022-11-21T22:24:45.855Z,98993.00
2022-11-21T22:27:16.561Z,98995.13
2022-11-21T22:29:42.858Z,98985.50
2022-11-21T22:32:09.162Z,98988.53
2022-11-21T22:34:35.486Z,98982.59
2022-11-21T22:37:01.848Z,98980.50
2022-11-21T22:39:28.236Z,98978.72
2022-11-21T22:41:59.535Z,98966.06
2022-11-21T22:44:26.172Z,98969.59
2022-11-21T22:46:52.495Z,98974.88
2022-11-21T22:49:18.825Z,98966.31
2022-11-21T22:51:45.115Z,98959.34
2022-11-21T22:54:11.375Z,98947.59
2022-11-21T22:56:37.645Z,98944.88
2022-11-21T22:59:03.976Z,98940.81
2022-11-21T23:01:30.415Z,98940.81
2022-11-21T23:03:56.760Z,98938.66
2022-11-21T23:06:23.586Z,98924.88
2022-11-21T23:08:50.117Z,98920.16
2022-11-21T23:11:16.404Z,98916.19
2022-11-21T23:13:42.780Z,98916.56
2022-11-21T23:16:09.049Z,98904.81
2022-11-21T23:18:35.349Z,98896.69
2022-11-21T23:21:01.555Z,98896.31
2022-11-21T23:23:27.769Z,98901.19
2022-11-21T23:25:54.003Z,98906.16
2022-11-21T23:28:20.245Z,98899.69
2022-11-21T23:30:46.499Z,98898.25
2022-11-21T23:33:12.744Z,98898.88
2022-11-21T23:35:38.966Z,98897.19
2022-11-21T23:38:05.195Z,98879.38
2022-11-21T23:40:31.450Z,98877.88
2022-11-21T23:42:57.670Z,98885.78
2022-11-21T23:45:23.911Z,98890.72
2022-11-21T23:47:50.134Z,98884.47
2022-11-21T23:50:16.559Z,98887.19
2022-11-21T23:52:42.784Z,98886.38
2022-11-21T23:55:09.011Z,98889.78
2022-11-21T23:57:35.234Z,98877.56
